Time;durP1;ratioP1;P1;durP2;ratioP2;P2;SDS_P1;SDS_P2;PMS_P1;PMS_P2;Temp;Humidity;BMP_temperature;BMP_pressure;BME280_temperature;BME280_humidity;BME280_pressure;Samples;Min_cycle;Max_cycle;Signal;HPM_P1;HPM_P2
2022/03/20 00:01:21;;;;;;;29.40;12.60;;;0.10;53.90;;;-0.24;44.82;96987.00;5045155;28;20480;-60
2022/03/20 00:03:49;;;;;;;27.60;13.63;;;0.10;53.60;;;-0.23;45.41;96983.56;5049143;28;20456;-60
2022/03/20 00:06:16;;;;;;;29.57;12.83;;;0.10;53.50;;;-0.22;45.11;96990.41;5044848;28;20452;-56
2022/03/20 00:08:43;;;;;;;31.27;13.10;;;0.20;53.70;;;-0.21;45.04;96998.16;5046488;28;20576;-59
2022/03/20 00:11:12;;;;;;;21.67;12.53;;;0.20;53.60;;;-0.22;44.66;96991.31;5046396;28;20460;-56
2022/03/20 00:13:40;;;;;;;29.37;14.37;;;0.20;53.50;;;-0.21;44.34;96993.00;5046980;28;20460;-56
2022/03/20 00:16:07;;;;;;;23.70;11.20;;;0.20;53.30;;;-0.22;44.77;97000.75;5043572;28;20483;-59
2022/03/20 00:18:35;;;;;;;27.10;13.47;;;0.10;53.90;;;-0.24;44.79;96997.34;5040686;28;20471;-58
2022/03/20 00:21:02;;;;;;;26.73;12.77;;;0.20;53.40;;;-0.25;44.55;97000.81;5049110;28;20898;-56
2022/03/20 00:23:29;;;;;;;21.97;12.67;;;0.10;53.40;;;-0.26;44.88;96993.94;5048256;28;20897;-54
2022/03/20 00:25:57;;;;;;;22.23;11.13;;;0.10;53.40;;;-0.26;44.76;96994.78;5046666;28;20456;-54
2022/03/20 00:28:26;;;;;;;35.20;11.60;;;0.10;53.40;;;-0.26;45.24;96999.13;5045486;28;20545;-54
2022/03/20 00:30:55;;;;;;;17.20;9.93;;;0.10;53.90;;;-0.27;45.04;97003.41;5044689;28;20458;-60
2022/03/20 00:33:22;;;;;;;19.73;10.70;;;0.10;53.60;;;-0.28;45.25;96996.56;5047421;28;20491;-56
2022/03/20 00:35:49;;;;;;;19.30;10.47;;;0.10;53.80;;;-0.26;45.10;96988.78;5045059;28;20536;-59
2022/03/20 00:38:16;;;;;;;22.20;9.33;;;0.10;53.80;;;-0.26;45.02;96997.38;5041927;28;20985;-57
2022/03/20 00:40:44;;;;;;;19.33;10.67;;;0.10;53.90;;;-0.26;44.96;96994.78;5046154;28;20986;-58
2022/03/20 00:43:12;;;;;;;16.50;9.83;;;0.10;53.90;;;-0.27;45.23;96993.06;5051930;28;20494;-58
2022/03/20 00:45:40;;;;;;;15.80;9.60;;;0.10;54.00;;;-0.25;45.08;96990.47;5045957;28;20456;-59
2022/03/20 00:48:08;;;;;;;20.43;9.20;;;0.10;53.60;;;-0.27;44.80;96994.81;5046109;28;20780;-60
2022/03/20 00:50:36;;;;;;;18.00;9.30;;;0.10;53.70;;;-0.27;44.61;96987.06;5051193;28;20455;-60
2022/03/20 00:53:03;;;;;;;12.20;8.57;;;0.10;53.80;;;-0.26;44.96;96994.78;5054712;28;21050;-60
2022/03/20 00:55:31;;;;;;;17.77;9.73;;;0.10;53.70;;;-0.25;44.82;96990.47;5056592;28;20635;-56
2022/03/20 00:57:58;;;;;;;17.47;7.87;;;0.10;53.60;;;-0.26;44.96;96986.19;5044514;28;20487;-59
2022/03/20 01:00:26;;;;;;;10.77;7.80;;;0.10;53.80;;;-0.30;44.44;96981.94;5049144;28;20994;-56
2022/03/20 01:02:54;;;;;;;16.40;9.30;;;0.10;53.40;;;-0.35;44.55;96997.50;5055504;28;21015;-61
2022/03/20 01:05:22;;;;;;;19.27;9.33;;;0.00;53.30;;;-0.39;44.77;96994.13;5057865;28;20445;-55
2022/03/20 01:07:49;;;;;;;15.73;9.37;;;0.00;53.50;;;-0.43;44.74;96989.00;5052275;28;20490;-58
2022/03/20 01:10:17;;;;;;;19.57;9.30;;;0.00;53.50;;;-0.48;44.81;96994.25;5050454;28;20455;-54
2022/03/20 01:12:44;;;;;;;14.67;9.30;;;-0.10;53.60;;;-0.53;44.95;96985.66;5060869;28;21206;-60
2022/03/20 01:15:13;;;;;;;20.83;10.50;;;-0.10;53.60;;;-0.57;45.39;96994.34;5057554;28;20519;-59
2022/03/20 01:17:40;;;;;;;17.00;9.03;;;-0.20;53.70;;;-0.60;45.00;96984.06;5048956;28;21045;-56
2022/03/20 01:20:11;;;;;;;20.33;10.53;;;-0.20;53.80;;;-0.62;45.24;96985.78;5050786;28;20448;-58
2022/03/20 01:22:40;;;;;;;19.40;11.97;;;-0.20;54.10;;;-0.63;45.07;96984.09;5047686;28;20582;-60
2022/03/20 01:25:08;;;;;;;22.30;11.57;;;-0.20;54.20;;;-0.65;45.24;96985.81;5055035;28;20455;-56
2022/03/20 01:27:35;;;;;;;23.70;11.37;;;-0.20;54.40;;;-0.66;45.21;96984.13;5052182;28;21042;-59
2022/03/20 01:30:03;;;;;;;20.80;11.10;;;-0.30;54.20;;;-0.70;45.02;96978.13;5047105;28;20482;-59
2022/03/20 01:32:30;;;;;;;15.50;9.60;;;-0.30;54.60;;;-0.71;45.30;96973.84;5055017;28;20574;-59
2022/03/20 01:34:57;;;;;;;15.47;9.47;;;-0.30;54.10;;;-0.72;45.12;96966.97;5049844;28;20452;-56
2022/03/20 01:37:26;;;;;;;18.17;10.53;;;-0.30;54.40;;;-0.73;45.17;96960.06;5057702;28;20539;-54
2022/03/20 01:39:54;;;;;;;16.60;8.83;;;-0.30;53.90;;;-0.78;44.47;96964.47;5047387;28;20553;-56
2022/03/20 01:42:21;;;;;;;19.57;10.53;;;-0.40;53.20;;;-0.86;44.76;96969.72;5049903;28;20508;-60
2022/03/20 01:44:49;;;;;;;15.47;9.63;;;-0.40;53.60;;;-0.93;44.69;96976.69;5054883;28;20456;-54
2022/03/20 01:47:16;;;;;;;14.97;8.80;;;-0.50;53.50;;;-0.95;44.98;96972.41;5055718;28;20478;-60
2022/03/20 01:49:43;;;;;;;17.93;8.50;;;-0.50;53.80;;;-0.99;45.37;96973.31;5047962;28;20592;-60
2022/03/20 01:52:14;;;;;;;12.90;8.67;;;-0.50;53.80;;;-1.01;45.52;96977.66;5048962;28;20490;-56
2022/03/20 01:54:45;;;;;;;15.63;8.63;;;-0.60;54.30;;;-1.01;45.83;96978.50;5049951;28;20447;-57
2022/03/20 01:57:16;;;;;;;15.47;9.40;;;-0.60;54.50;;;-1.00;45.74;96979.38;5056216;28;20462;-59
2022/03/20 01:59:44;;;;;;;12.27;8.30;;;-0.60;54.90;;;-0.99;45.55;96976.75;5046036;28;20625;-55
2022/03/20 02:02:11;;;;;;;11.40;7.30;;;-0.60;54.90;;;-0.98;45.77;96983.63;5050639;28;20551;-59
2022/03/20 02:04:39;;;;;;;16.37;8.80;;;-0.60;54.70;;;-0.99;45.16;96978.47;5056958;28;20474;-60
2022/03/20 02:07:07;;;;;;;30.53;13.70;;;-0.60;54.70;;;-0.99;45.52;96984.50;5057481;28;20900;-56
2022/03/20 02:09:35;;;;;;;17.57;9.40;;;-0.60;54.20;;;-1.02;45.25;96981.09;5052519;28;20461;-54
2022/03/20 02:12:05;;;;;;;17.30;9.10;;;-0.60;53.80;;;-1.12;45.58;96982.94;5046939;28;20494;-56
2022/03/20 02:14:33;;;;;;;15.10;9.63;;;-0.60;54.10;;;-1.20;45.80;96985.59;5051731;28;20494;-60
2022/03/20 02:17:00;;;;;;;14.33;8.37;;;-0.70;54.80;;;-1.25;45.67;96984.78;5052864;28;20478;-56
2022/03/20 02:19:28;;;;;;;15.80;8.90;;;-0.80;54.70;;;-1.29;45.81;96989.09;5057747;28;20447;-59
2022/03/20 02:21:56;;;;;;;15.67;9.20;;;-0.90;54.70;;;-1.34;45.08;96985.72;5044715;28;20472;-58
2022/03/20 02:24:36;;;;;;;17.80;8.50;;;-0.90;54.60;;;-1.42;45.84;96986.69;5053910;28;20455;-54
2022/03/20 02:27:13;;;;;;;14.70;8.93;;;-1.00;54.60;;;-1.44;46.47;96984.13;5051877;28;20553;-56
2022/03/20 02:29:41;;;;;;;15.97;9.00;;;-1.00;55.20;;;-1.42;46.45;96986.69;5053358;28;20477;-56
2022/03/20 02:32:09;;;;;;;11.37;8.27;;;-1.00;55.50;;;-1.38;46.68;96988.34;5045816;28;20474;-59
2022/03/20 02:34:37;;;;;;;15.40;8.13;;;-1.00;55.80;;;-1.33;46.90;96986.59;5049913;28;20503;-55
2022/03/20 02:37:06;;;;;;;12.60;8.93;;;-0.90;56.10;;;-1.30;46.34;96981.38;5056569;28;20828;-54
2022/03/20 02:39:33;;;;;;;15.23;8.77;;;-0.90;55.90;;;-1.27;46.33;96983.94;5056666;28;20459;-57
2022/03/20 02:42:05;;;;;;;19.93;9.70;;;-0.90;56.00;;;-1.25;46.85;96984.78;5047635;28;20830;-60
2022/03/20 02:44:50;;;;;;;16.87;8.40;;;-0.80;56.20;;;-1.24;46.68;96976.16;5049755;28;20541;-59
2022/03/20 02:47:22;;;;;;;14.60;9.40;;;-0.80;56.20;;;-1.22;47.08;96974.44;5051643;28;20478;-58
2022/03/20 02:49:55;;;;;;;19.87;10.97;;;-0.80;56.10;;;-1.20;46.62;96977.84;5048505;28;20484;-59
2022/03/20 02:52:29;;;;;;;18.37;9.63;;;-0.80;56.20;;;-1.21;46.82;96983.03;5045418;28;20495;-56
2022/03/20 02:55:01;;;;;;;19.93;11.07;;;-0.80;56.50;;;-1.24;47.15;96978.75;5047542;28;20492;-57
2022/03/20 02:57:30;;;;;;;19.60;10.70;;;-0.80;56.40;;;-1.26;46.67;96980.50;5050613;28;20920;-61
2022/03/20 03:00:00;;;;;;;33.77;11.70;;;-0.80;56.60;;;-1.30;46.32;96973.63;5046601;28;20460;-56
2022/03/20 03:02:29;;;;;;;22.73;11.53;;;-0.80;56.60;;;-1.30;46.99;96981.38;5045977;28;20504;-58
2022/03/20 03:04:59;;;;;;;25.07;11.40;;;-0.90;56.30;;;-1.34;46.38;96990.88;5046731;28;20495;-55
2022/03/20 03:07:28;;;;;;;30.33;12.77;;;-0.90;56.70;;;-1.39;47.32;96971.19;5048531;28;20523;-56
2022/03/20 03:12:40;;;;;;;26.83;12.87;;;-1.00;56.60;;;-1.50;46.85;96979.88;5048471;28;20475;-59
2022/03/20 03:15:21;;;;;;;21.77;12.10;;;-1.00;56.70;;;-1.53;46.63;96981.63;5043850;28;20851;-54
2022/03/20 03:17:48;;;;;;;21.70;12.23;;;-1.10;56.60;;;-1.56;47.29;96982.50;5043981;28;21030;-55
2022/03/20 03:20:19;;;;;;;21.17;11.00;;;-1.10;57.00;;;-1.58;47.74;96983.38;5056416;28;20845;-59
2022/03/20 03:22:48;;;;;;;21.80;11.90;;;-1.10;57.10;;;-1.62;47.19;96985.13;5053187;28;20523;-59
2022/03/20 03:25:15;;;;;;;19.37;10.97;;;-1.20;57.30;;;-1.65;47.78;96980.00;5047442;28;20455;-55
2022/03/20 03:27:42;;;;;;;18.87;10.70;;;-1.20;57.20;;;-1.65;46.87;96985.16;5051508;28;20498;-55
2022/03/20 03:30:12;;;;;;;18.87;10.30;;;-1.20;57.30;;;-1.68;47.53;96982.63;5045379;28;20882;-54
2022/03/20 03:32:40;;;;;;;18.37;10.90;;;-1.20;57.50;;;-1.72;47.21;96981.78;5057494;28;20485;-54
2022/03/20 03:37:54;;;;;;;23.77;10.47;;;-1.30;57.70;;;-1.77;48.00;96985.28;5047468;28;20517;-55
2022/03/20 03:40:22;;;;;;;16.47;10.23;;;-1.30;57.80;;;-1.80;47.89;96980.97;5044948;28;20455;-56
2022/03/20 03:42:49;;;;;;;22.03;10.30;;;-1.30;57.90;;;-1.79;47.90;96984.44;5055854;28;20492;-58
2022/03/20 03:45:16;;;;;;;16.90;10.20;;;-1.40;58.20;;;-1.82;48.09;96982.72;5045604;28;20471;-55
2022/03/20 03:47:43;;;;;;;19.40;8.90;;;-1.30;58.10;;;-1.83;47.24;96989.63;5050135;28;20563;-56
2022/03/20 03:50:12;;;;;;;18.47;10.00;;;-1.40;58.10;;;-1.84;47.39;96985.31;5051525;28;20495;-54
2022/03/20 03:52:39;;;;;;;20.87;11.37;;;-1.40;58.10;;;-1.85;47.55;96999.06;5042854;28;20494;-55
2022/03/20 03:55:08;;;;;;;25.53;10.77;;;-1.40;58.10;;;-1.86;47.25;96994.81;5047472;28;20542;-56
2022/03/20 03:57:36;;;;;;;20.53;10.20;;;-1.40;58.00;;;-1.87;48.16;96990.50;5044178;28;20483;-60
2022/03/20 04:00:04;;;;;;;15.20;10.73;;;-1.40;58.10;;;-1.86;47.84;96984.47;5053323;28;20451;-56
2022/03/20 04:02:31;;;;;;;22.10;11.33;;;-1.40;58.30;;;-1.84;48.48;96987.91;5052966;28;20885;-61
2022/03/20 04:04:59;;;;;;;19.23;9.77;;;-1.40;58.30;;;-1.84;47.99;96990.47;5047022;28;20572;-59
2022/03/20 04:07:26;;;;;;;15.73;9.77;;;-1.40;58.20;;;-1.83;48.44;96986.16;5047339;28;20484;-60
2022/03/20 04:09:53;;;;;;;24.57;12.37;;;-1.40;58.40;;;-1.84;48.36;96987.91;5049932;28;21365;-54
2022/03/20 04:12:22;;;;;;;46.80;20.83;;;-1.40;58.50;;;-1.83;48.19;96987.03;5053399;28;20504;-60
2022/03/20 04:14:49;;;;;;;40.70;15.70;;;-1.40;58.50;;;-1.82;48.38;96981.00;5041687;28;20498;-60
2022/03/20 04:17:16;;;;;;;18.80;11.60;;;-1.40;58.50;;;-1.81;48.62;96987.88;5047958;28;20490;-57
2022/03/20 04:19:44;;;;;;;16.87;9.77;;;-1.30;58.70;;;-1.78;47.50;96983.53;5049191;28;20469;-60
2022/03/20 04:22:11;;;;;;;16.93;10.60;;;-1.30;58.40;;;-1.78;47.92;96976.69;5051713;28;20482;-56
2022/03/20 04:24:38;;;;;;;20.90;10.50;;;-1.40;58.60;;;-1.75;47.92;96988.69;5053696;28;20491;-58
2022/03/20 04:27:06;;;;;;;21.60;11.00;;;-1.30;58.30;;;-1.75;48.23;96991.25;5045391;28;20460;-60
2022/03/20 04:29:35;;;;;;;19.50;11.20;;;-1.30;58.10;;;-1.75;47.59;96984.41;5050723;28;20462;-58
2022/03/20 04:32:03;;;;;;;15.93;10.67;;;-1.30;58.50;;;-1.75;48.18;96988.69;5049153;28;20467;-58
2022/03/20 04:34:30;;;;;;;22.00;10.67;;;-1.30;58.50;;;-1.74;48.35;96990.41;5047504;28;20459;-57
2022/03/20 04:36:57;;;;;;;16.37;10.20;;;-1.30;58.50;;;-1.74;47.31;96992.97;5046406;28;20995;-59
2022/03/20 04:39:25;;;;;;;19.90;10.97;;;-1.30;58.50;;;-1.74;47.54;96992.97;5050583;28;20475;-56
2022/03/20 04:41:52;;;;;;;15.70;10.00;;;-1.30;58.70;;;-1.74;48.64;96998.13;5055917;28;21026;-59
2022/03/20 04:44:20;;;;;;;16.77;9.30;;;-1.30;58.80;;;-1.74;47.89;97000.72;5052342;28;21016;-55
2022/03/20 04:46:49;;;;;;;15.93;9.60;;;-1.30;58.80;;;-1.74;48.65;97006.72;5047168;28;20479;-57
2022/03/20 05:00:15;;;;;;;24.53;11.90;;;-1.30;58.70;;;-1.70;48.21;96999.84;5052889;28;20486;-60
2022/03/20 05:02:44;;;;;;;15.23;8.77;;;-1.30;58.90;;;-1.68;47.60;96996.34;5050829;28;20511;-54
2022/03/20 05:05:12;;;;;;;20.30;10.23;;;-1.30;59.10;;;-1.63;48.41;96998.91;5048570;28;20452;-60
2022/03/20 05:07:39;;;;;;;20.20;9.33;;;-1.20;59.50;;;-1.58;49.15;96998.84;5041990;28;20464;-60
2022/03/20 05:15:37;;;;;;;18.87;9.07;;;-1.10;59.50;;;-1.38;47.85;96999.56;5055387;28;20447;-60
2022/03/20 05:18:06;;;;;;;16.97;9.53;;;-1.00;59.60;;;-1.20;47.79;97008.81;5053707;28;20555;-60
2022/03/20 05:20:33;;;;;;;20.80;11.43;;;-0.90;59.40;;;-1.09;47.58;97009.56;5048713;28;20465;-63
2022/03/20 05:23:01;;;;;;;17.63;10.33;;;-0.70;59.00;;;-1.03;47.89;97016.41;5044914;28;20491;-58
2022/03/20 05:25:29;;;;;;;22.63;11.40;;;-0.60;58.60;;;-1.01;47.61;97012.06;5053208;28;21011;-56
2022/03/20 05:27:56;;;;;;;22.63;10.40;;;-0.60;58.30;;;-0.99;46.88;97017.22;5056502;28;20468;-56
2022/03/20 05:30:24;;;;;;;15.43;9.90;;;-0.60;58.30;;;-0.91;47.22;97018.84;5046189;28;20462;-55
2022/03/20 05:32:51;;;;;;;15.80;9.63;;;-0.50;58.30;;;-0.78;47.30;97019.56;5052257;28;20536;-60
2022/03/20 05:35:20;;;;;;;23.00;10.43;;;-0.40;58.40;;;-0.58;46.95;97024.50;5057787;28;20526;-60
2022/03/20 05:37:47;;;;;;;14.63;9.07;;;-0.20;58.20;;;-0.41;46.59;97026.03;5059724;28;20467;-56
2022/03/20 05:40:15;;;;;;;14.17;9.10;;;0.00;57.60;;;-0.31;45.86;97025.03;5044278;28;20456;-59
2022/03/20 05:42:43;;;;;;;16.47;9.50;;;0.10;56.80;;;-0.24;45.80;97028.38;5049273;28;20503;-61
2022/03/20 05:45:11;;;;;;;17.03;9.60;;;0.20;56.50;;;-0.23;45.57;97025.78;5054539;28;20986;-60
2022/03/20 05:47:39;;;;;;;16.97;8.97;;;0.20;56.00;;;-0.20;45.42;97027.47;5057397;28;20528;-56
2022/03/20 05:50:08;;;;;;;15.13;8.23;;;0.20;55.50;;;-0.17;45.56;97040.38;5049476;28;20452;-59
2022/03/20 05:52:37;;;;;;;18.43;8.70;;;0.20;55.50;;;-0.14;45.45;97029.97;5049819;28;20484;-57
2022/03/20 05:55:05;;;;;;;11.97;7.80;;;0.20;55.50;;;-0.09;45.11;97037.69;5054709;28;20471;-57
2022/03/20 06:00:23;;;;;;;21.43;8.17;;;0.30;55.20;;;0.12;44.52;97028.75;5045207;28;20447;-60
2022/03/20 06:02:51;;;;;;;13.70;9.27;;;0.40;54.60;;;0.25;44.74;97024.22;5048377;28;21015;-60
2022/03/20 06:05:18;;;;;;;8.10;6.80;;;0.50;54.90;;;0.46;44.33;97034.25;5038732;28;20710;-61
2022/03/20 06:07:48;;;;;;;15.60;8.00;;;0.70;54.80;;;0.70;44.12;97037.31;5036979;28;20493;-58
2022/03/20 06:10:16;;;;;;;14.37;9.00;;;0.90;54.50;;;0.95;43.74;97032.56;5045265;28;20460;-59
2022/03/20 06:12:43;;;;;;;8.57;5.83;;;1.10;54.20;;;1.22;43.73;97038.09;5045694;28;20463;-60
2022/03/20 06:15:11;;;;;;;10.97;6.90;;;1.40;53.70;;;1.49;42.67;97047.09;5050590;28;20467;-60
2022/03/20 06:17:39;;;;;;;13.83;7.50;;;1.70;53.10;;;1.73;42.59;97045.72;5049728;28;20518;-56
2022/03/20 06:20:08;;;;;;;14.90;7.70;;;1.90;52.50;;;1.97;42.22;97040.91;5048334;28;20464;-55
2022/03/20 06:22:36;;;;;;;9.53;7.80;;;2.10;51.90;;;2.19;42.99;97041.28;5044872;28;20459;-59
2022/03/20 06:25:08;;;;;;;10.73;6.50;;;2.30;52.00;;;2.43;41.34;97034.69;5046198;28;20494;-61
2022/03/20 06:27:48;;;;;;;14.47;7.37;;;2.60;51.30;;;2.68;41.23;97042.72;5045522;28;20494;-56
2022/03/20 06:30:17;;;;;;;16.37;6.90;;;2.80;50.60;;;2.97;41.46;97037.69;5043479;28;20964;-56
2022/03/20 06:32:45;;;;;;;11.30;8.53;;;3.00;50.80;;;3.18;40.46;97039.72;5043607;28;20916;-56
2022/03/20 06:35:12;;;;;;;14.50;7.47;;;3.30;49.50;;;3.40;39.48;97041.72;5048012;28;20455;-56
2022/03/20 06:37:40;;;;;;;12.90;7.93;;;3.50;49.10;;;3.57;40.16;97039.50;5045718;28;20480;-58
2022/03/20 06:40:10;;;;;;;13.67;8.33;;;3.70;49.30;;;3.76;39.37;97039.00;5042118;28;20452;-56
2022/03/20 06:42:37;;;;;;;14.70;9.63;;;3.90;48.30;;;4.02;39.31;97046.03;5041350;28;20858;-61
2022/03/20 06:45:08;;;;;;;17.43;9.40;;;4.10;47.80;;;4.27;39.53;97040.06;5044708;28;20496;-57
2022/03/20 06:47:35;;;;;;;19.20;9.53;;;4.30;48.30;;;4.50;39.34;97044.56;5041955;28;20485;-59
2022/03/20 06:50:03;;;;;;;15.63;9.73;;;4.60;48.20;;;4.60;38.32;97038.16;5045622;28;20470;-60
2022/03/20 06:52:31;;;;;;;13.70;9.57;;;4.70;47.20;;;4.76;37.98;97048.09;5046822;28;20618;-57
2022/03/20 06:54:59;;;;;;;19.57;11.53;;;4.80;46.30;;;4.95;37.84;97043.97;5042361;28;20455;-58
2022/03/20 06:57:28;;;;;;;22.00;12.40;;;5.00;46.60;;;5.27;37.99;97047.25;5044775;28;21025;-57
2022/03/20 06:59:56;;;;;;;34.23;11.00;;;5.30;46.50;;;5.54;37.57;97036.72;5048209;28;20457;-57
2022/03/20 07:02:24;;;;;;;17.43;9.70;;;5.60;46.20;;;5.86;37.19;97043.38;5040472;28;20476;-58
2022/03/20 07:04:52;;;;;;;13.80;6.93;;;5.80;45.80;;;6.05;36.48;97033.09;5038614;28;20503;-55
2022/03/20 07:07:19;;;;;;;10.40;7.97;;;6.00;44.60;;;6.14;36.21;97031.06;5047075;28;20476;-56
2022/03/20 07:09:46;;;;;;;11.47;7.90;;;6.20;44.30;;;6.30;35.82;97034.78;5047884;28;20519;-55
2022/03/20 07:12:14;;;;;;;17.37;8.10;;;6.30;44.20;;;6.49;36.21;97042.78;5040292;28;20477;-56
2022/03/20 07:14:43;;;;;;;14.73;9.03;;;6.50;44.60;;;6.77;35.79;97033.78;5042680;28;20463;-57
2022/03/20 07:17:12;;;;;;;12.13;7.77;;;6.80;44.40;;;7.04;35.09;97050.13;5041549;28;20479;-57
2022/03/20 07:19:42;;;;;;;8.73;6.53;;;7.00;43.40;;;7.29;34.76;97036.00;5047586;28;20460;-59
2022/03/20 07:22:10;;;;;;;11.63;6.63;;;7.20;43.10;;;7.42;33.75;97039.78;5046618;28;20951;-56
2022/03/20 07:24:38;;;;;;;6.87;6.10;;;7.40;42.20;;;7.58;34.29;97036.50;5044300;28;20849;-56
2022/03/20 07:29:52;;;;;;;9.23;5.80;;;7.80;42.90;;;8.23;33.04;97031.78;5042593;28;20459;-63
2022/03/20 07:32:19;;;;;;;9.20;6.10;;;8.10;41.40;;;8.73;34.03;97030.31;5055248;28;20548;-58
2022/03/20 07:34:46;;;;;;;11.20;5.93;;;8.50;42.30;;;9.25;34.02;97029.47;5045116;28;20464;-58
2022/03/20 07:37:15;;;;;;;8.40;6.20;;;9.00;42.00;;;9.67;32.77;97023.78;5045789;28;20486;-56
2022/03/20 07:39:43;;;;;;;8.67;5.70;;;9.40;40.90;;;10.05;33.07;97039.31;5053061;28;20471;-59
2022/03/20 07:42:10;;;;;;;11.33;5.73;;;9.90;41.10;;;10.31;32.98;97028.28;5048529;28;20507;-58
2022/03/20 07:44:38;;;;;;;5.87;4.97;;;10.20;39.70;;;10.60;31.68;97024.06;5047714;28;21095;-58
2022/03/20 07:47:08;;;;;;;6.53;5.60;;;10.50;38.60;;;10.89;30.48;97029.44;5043307;28;20841;-59
2022/03/20 07:49:36;;;;;;;6.20;5.20;;;10.90;36.80;;;11.00;30.75;97024.44;5048356;28;20994;-57
2022/03/20 07:52:05;;;;;;;10.10;6.97;;;11.10;36.20;;;11.24;30.99;97021.28;5049507;28;20559;-58
2022/03/20 07:54:32;;;;;;;7.17;6.00;;;11.40;36.60;;;11.56;31.01;97023.78;5043839;28;20460;-58
2022/03/20 07:57:00;;;;;;;12.90;6.83;;;11.70;36.80;;;11.94;30.04;97015.34;5045004;28;20537;-58
2022/03/20 07:59:27;;;;;;;10.40;6.63;;;12.10;34.80;;;12.25;29.57;97013.44;5047728;28;20986;-58
2022/03/20 08:01:54;;;;;;;11.40;7.03;;;12.50;35.50;;;12.60;29.72;97010.34;5045444;28;20539;-57
2022/03/20 08:04:24;;;;;;;7.03;5.90;;;12.90;35.60;;;12.98;28.46;97013.09;5051220;28;20491;-56
2022/03/20 08:06:51;;;;;;;9.00;6.47;;;13.30;33.80;;;13.28;28.37;97018.13;5043860;28;21083;-57
2022/03/20 08:09:19;;;;;;;10.83;6.10;;;13.60;33.80;;;13.26;28.12;97005.94;5047345;28;20962;-57
2022/03/20 08:11:46;;;;;;;8.23;6.00;;;13.60;32.70;;;13.12;27.26;97004.25;5041707;28;20479;-58
2022/03/20 08:14:13;;;;;;;8.27;5.77;;;13.60;32.10;;;12.96;27.41;97000.94;5045248;28;20463;-57
2022/03/20 08:16:41;;;;;;;15.50;5.90;;;13.40;31.80;;;12.98;27.57;96999.91;5042610;28;20537;-57
2022/03/20 08:19:09;;;;;;;9.70;6.47;;;13.30;31.80;;;13.15;27.41;97001.41;5045677;28;20999;-56
2022/03/20 08:21:39;;;;;;;8.57;5.90;;;13.40;32.50;;;13.35;26.99;96997.44;5047521;28;20498;-56
2022/03/20 08:24:07;;;;;;;8.83;5.10;;;13.60;31.80;;;13.37;27.47;96984.09;5047994;28;20475;-57
2022/03/20 08:26:35;;;;;;;12.47;5.80;;;13.70;32.00;;;13.30;26.45;96988.09;5046077;28;20468;-59
2022/03/20 08:29:02;;;;;;;11.60;5.97;;;13.70;30.70;;;13.20;25.36;96988.72;5048817;28;20867;-56
2022/03/20 08:31:30;;;;;;;7.00;6.27;;;13.70;30.20;;;13.12;26.61;96985.78;5046843;28;20467;-58
2022/03/20 08:33:58;;;;;;;8.17;4.63;;;13.60;30.80;;;13.18;26.30;96969.47;5049012;28;20976;-58
2022/03/20 08:36:25;;;;;;;7.33;5.40;;;13.60;30.00;;;13.37;26.45;96982.31;5046865;28;20471;-57
2022/03/20 08:38:54;;;;;;;7.07;6.10;;;13.70;30.20;;;13.53;26.07;96974.19;5046358;28;20440;-58
2022/03/20 08:41:21;;;;;;;9.67;5.90;;;13.80;30.50;;;13.69;24.99;96981.06;5045887;28;20761;-56
2022/03/20 08:43:49;;;;;;;8.73;5.40;;;13.90;29.70;;;13.68;24.48;96974.06;5050835;28;20987;-57
2022/03/20 08:46:17;;;;;;;9.70;5.67;;;13.90;29.10;;;13.53;24.68;96963.59;5047855;28;20495;-57
2022/03/20 08:48:44;;;;;;;8.83;6.00;;;13.80;28.70;;;13.42;25.06;96961.69;5046680;28;20501;-58
2022/03/20 08:51:11;;;;;;;6.10;5.60;;;13.70;29.20;;;13.33;24.24;96972.03;5047880;28;20436;-56
2022/03/20 08:53:39;;;;;;;6.40;5.40;;;13.50;28.40;;;13.20;25.14;96967.59;5049000;28;20462;-58
2022/03/20 08:56:10;;;;;;;14.57;5.10;;;13.30;29.40;;;13.13;24.41;96960.19;5045422;28;20880;-57
2022/03/20 08:58:38;;;;;;;8.30;5.20;;;13.20;28.70;;;12.97;24.73;96957.75;5043717;28;20866;-58
2022/03/20 09:01:07;;;;;;;10.30;4.60;;;13.10;28.90;;;12.78;23.92;96966.03;5052030;28;20447;-57
2022/03/20 09:03:35;;;;;;;7.73;4.90;;;12.90;28.50;;;12.55;24.01;96956.03;5049777;28;20983;-59
2022/03/20 09:06:02;;;;;;;8.07;5.00;;;12.70;28.20;;;12.36;24.13;96955.53;5050454;28;21015;-59
2022/03/20 09:08:29;;;;;;;10.80;4.97;;;12.50;28.20;;;12.19;24.45;96948.69;5035848;28;20489;-57
2022/03/20 09:10:57;;;;;;;7.27;5.20;;;12.30;28.30;;;12.09;24.10;96947.59;5046429;28;20908;-58
2022/03/20 09:13:26;;;;;;;6.43;5.00;;;12.10;28.20;;;12.19;25.11;96938.16;5051934;28;20470;-58
2022/03/20 09:18:59;;;;;;;7.30;5.33;;;12.20;29.10;;;12.52;24.85;96950.13;5044059;28;20440;-56
2022/03/20 09:19:00;;;;;;;11.57;6.77;;;12.40;29.10;;;12.88;23.98;96945.97;5047042;28;20936;-57
2022/03/20 09:21:28;;;;;;;10.93;4.30;;;12.70;28.40;;;13.14;23.90;96940.75;5048280;28;20476;-54
2022/03/20 09:23:55;;;;;;;5.93;5.23;;;12.90;28.00;;;13.27;23.51;96929.19;5049742;28;20522;-58
2022/03/20 09:26:23;;;;;;;22.43;6.00;;;13.10;27.80;;;13.38;24.39;96938.22;5048799;28;20450;-59
2022/03/20 09:28:52;;;;;;;6.70;5.30;;;13.20;28.50;;;13.26;23.14;96931.94;5046700;28;20452;-59
2022/03/20 09:31:20;;;;;;;9.93;4.93;;;13.20;27.40;;;13.18;23.63;96921.91;5047224;28;20440;-60
2022/03/20 09:33:47;;;;;;;5.77;4.20;;;13.20;27.50;;;13.24;24.00;96924.13;5052369;28;20553;-59
2022/03/20 09:36:14;;;;;;;15.27;5.43;;;13.20;28.30;;;13.19;22.74;96918.31;5051909;28;20459;-56
2022/03/20 09:38:42;;;;;;;6.43;4.93;;;13.20;27.00;;;13.14;23.11;96923.09;5055730;28;20509;-57
2022/03/20 09:41:11;;;;;;;5.37;4.87;;;13.10;27.30;;;13.12;22.95;96917.06;5050201;28;20464;-59
2022/03/20 09:43:40;;;;;;;8.57;4.97;;;13.10;27.20;;;13.03;22.98;96909.78;5050897;28;20815;-58
2022/03/20 09:46:08;;;;;;;5.43;4.60;;;13.00;27.30;;;12.90;22.25;96892.13;5053375;28;20487;-58
2022/03/20 09:48:36;;;;;;;7.10;4.23;;;12.90;26.80;;;12.82;22.61;96904.97;5052705;28;20863;-58
2022/03/20 09:51:05;;;;;;;4.73;4.20;;;12.80;26.20;;;12.76;22.13;96899.28;5049329;28;20778;-59
2022/03/20 09:53:32;;;;;;;8.70;3.63;;;12.80;26.50;;;12.67;23.46;96896.31;5052232;28;20468;-58
2022/03/20 09:56:01;;;;;;;21.10;4.93;;;12.60;27.10;;;12.66;22.80;96897.25;5052414;28;20462;-58
2022/03/20 09:58:30;;;;;;;4.33;3.83;;;12.60;27.10;;;12.58;22.79;96902.19;5051874;28;20921;-55
2022/03/20 10:00:58;;;;;;;8.43;4.10;;;12.50;26.40;;;12.49;22.78;96894.88;5050810;28;20509;-56
2022/03/20 10:03:26;;;;;;;5.17;4.67;;;12.40;26.40;;;12.33;23.15;96902.94;5052158;28;20994;-57
2022/03/20 10:06:15;;;;;;;7.83;4.00;;;12.30;26.90;;;12.16;21.78;96904.03;5043709;28;20483;-60
2022/03/20 10:09:05;;;;;;;5.97;3.43;;;12.10;26.10;;;12.04;20.79;96896.91;5048693;28;20476;-60
2022/03/20 10:11:32;;;;;;;8.30;4.33;;;12.00;25.50;;;11.80;22.17;96895.75;5044723;28;20480;-57
2022/03/20 10:14:10;;;;;;;7.10;4.63;;;11.80;25.40;;;11.65;21.32;96894.91;5049947;28;20447;-59
2022/03/20 10:16:38;;;;;;;4.27;3.57;;;11.60;25.70;;;11.62;21.94;96879.28;5048934;28;21048;-59
2022/03/20 10:22:01;;;;;;;6.80;3.73;;;11.60;25.80;;;11.44;22.84;96877.81;5112885;27;20534;-61
2022/03/20 10:24:29;;;;;;;4.03;3.73;;;11.40;26.30;;;11.45;22.71;96874.25;5087313;28;20888;-57
2022/03/20 10:27:13;;;;;;;4.87;3.80;;;11.40;26.30;;;11.53;22.56;96881.66;5085911;28;20465;-57
2022/03/20 10:29:56;;;;;;;6.33;3.87;;;11.40;26.30;;;11.63;23.09;96885.41;5086090;28;20528;-55
2022/03/20 10:32:24;;;;;;;4.23;3.93;;;11.50;27.30;;;11.75;23.77;96875.88;5078561;28;21009;-57
2022/03/20 10:34:54;;;;;;;3.80;3.50;;;11.60;27.90;;;11.73;23.00;96877.78;5086128;28;20535;-57
2022/03/20 10:37:44;;;;;;;5.77;3.90;;;11.60;26.50;;;11.84;23.24;96875.28;5088439;28;20462;-60
2022/03/20 10:40:13;;;;;;;4.80;4.17;;;11.70;27.00;;;11.96;21.73;96871.03;5087873;28;20987;-58
2022/03/20 10:42:40;;;;;;;4.67;4.20;;;11.80;26.00;;;12.06;22.94;96873.94;5084909;28;20883;-57
2022/03/20 10:45:09;;;;;;;10.87;4.50;;;11.90;26.60;;;12.09;23.37;96874.59;5085041;28;20450;-66
2022/03/20 10:47:36;;;;;;;8.17;4.63;;;12.00;27.20;;;11.93;23.27;96868.59;5088410;28;20496;-60
2022/03/20 10:50:06;;;;;;;8.27;3.67;;;11.90;27.20;;;11.86;22.61;96868.13;5086452;28;20433;-58
2022/03/20 10:52:36;;;;;;;23.63;8.80;;;11.80;26.40;;;11.86;22.99;96865.50;5079752;28;20466;-58